createdAt,value
2019-01-15T00:00:07.754Z,95374.83
2019-01-15T00:02:35.222Z,95376.98
2019-01-15T00:05:02.873Z,95378.42
2019-01-15T00:07:30.244Z,95378.94
2019-01-15T00:09:57.551Z,95394.32
2019-01-15T00:12:24.877Z,95377.50
2019-01-15T00:14:52.300Z,95367.85
2019-01-15T00:19:44.924Z,95403.48
2019-01-15T00:22:12.277Z,95412.91
2019-01-15T00:24:39.598Z,95422.28
2019-01-15T00:27:06.968Z,95416.55
2019-01-15T00:29:34.369Z,95418.11
2019-01-15T00:32:01.719Z,95418.11
2019-01-15T00:34:29.040Z,95443.25
2019-01-15T00:36:57.033Z,95443.23
2019-01-15T00:39:24.361Z,95443.23
2019-01-15T00:41:51.707Z,95457.72
2019-01-15T00:44:19.404Z,95447.11
2019-01-15T00:46:46.799Z,95460.80
2019-01-15T00:49:14.538Z,95457.14
2019-01-15T00:51:41.919Z,95456.48
2019-01-15T00:54:09.288Z,95482.98
2019-01-15T00:56:37.297Z,95471.20
2019-01-15T00:59:04.690Z,95486.41
2019-01-15T01:01:32.051Z,95482.87
2019-01-15T01:03:59.401Z,95484.94
2019-01-15T01:06:26.804Z,95468.56
2019-01-15T01:08:54.119Z,95486.16
2019-01-15T01:11:21.428Z,95489.06
2019-01-15T01:13:50.425Z,95487.54
2019-01-15T01:16:17.952Z,95490.48
2019-01-15T01:18:45.296Z,95493.03
2019-01-15T01:21:12.686Z,95512.58
2019-01-15T01:23:40.025Z,95508.27
2019-01-15T01:26:07.385Z,95521.17
2019-01-15T01:28:34.737Z,95521.17
2019-01-15T01:31:02.114Z,95517.09
2019-01-15T01:33:29.434Z,95502.92
2019-01-15T01:35:56.828Z,95515.42
2019-01-15T01:38:24.210Z,95513.48
2019-01-15T01:40:51.527Z,95511.55
2019-01-15T01:43:18.925Z,95515.34
2019-01-15T01:45:46.338Z,95515.34
2019-01-15T01:48:13.665Z,95518.13
2019-01-15T01:50:41.045Z,95514.26
2019-01-15T01:53:08.381Z,95516.19
2019-01-15T01:55:35.715Z,95520.33
2019-01-15T01:58:03.097Z,95517.53
2019-01-15T02:00:30.556Z,95518.97
2019-01-15T02:02:57.898Z,95522.00
2019-01-15T02:05:25.338Z,95522.00
2019-01-15T02:07:52.679Z,95521.55
2019-01-15T02:10:20.185Z,95520.53
2019-01-15T02:12:47.932Z,95526.44
2019-01-15T02:15:17.802Z,95523.67
2019-01-15T02:17:45.218Z,95523.67
2019-01-15T02:20:14.592Z,95519.36
2019-01-15T02:22:42.056Z,95519.36
2019-01-15T02:25:09.777Z,95536.75
2019-01-15T02:27:40.223Z,95528.83
2019-01-15T02:30:10.240Z,95525.86
2019-01-15T02:32:37.607Z,95535.91
2019-01-15T02:35:05.452Z,95535.91
2019-01-15T02:37:32.822Z,95533.59
2019-01-15T02:40:00.232Z,95528.77
2019-01-15T02:42:27.673Z,95525.41
2019-01-15T02:44:55.173Z,95540.48
2019-01-15T02:47:22.554Z,95538.55
2019-01-15T02:49:49.958Z,95538.86
2019-01-15T02:52:17.313Z,95530.03
2019-01-15T02:54:44.686Z,95517.94
2019-01-15T02:57:12.094Z,95517.94
2019-01-15T02:59:39.462Z,95516.14
2019-01-15T03:02:06.833Z,95523.92
2019-01-15T03:04:34.253Z,95534.17
2019-01-15T03:07:01.638Z,95524.90
2019-01-15T03:09:29.013Z,95533.22
2019-01-15T03:11:56.413Z,95545.83
2019-01-15T03:14:23.792Z,95542.80
2019-01-15T03:16:51.158Z,95553.23
2019-01-15T03:19:19.752Z,95553.23
2019-01-15T03:21:47.542Z,95549.64
2019-01-15T03:24:14.898Z,95552.86
2019-01-15T03:26:42.295Z,95557.48
2019-01-15T03:29:09.632Z,95570.42
2019-01-15T03:31:37.020Z,95574.48
2019-01-15T03:34:04.457Z,95577.80
2019-01-15T03:36:31.797Z,95589.05
2019-01-15T03:38:59.154Z,95587.55
2019-01-15T03:41:26.564Z,95577.05
2019-01-15T03:43:53.918Z,95565.91
2019-01-15T03:46:21.279Z,95570.75
2019-01-15T03:48:48.657Z,95555.61
2019-01-15T03:51:16.016Z,95562.61
2019-01-15T03:53:43.381Z,95563.44
2019-01-15T03:56:10.757Z,95560.83
2019-01-15T03:58:38.143Z,95572.09
2019-01-15T04:01:05.492Z,95575.28
2019-01-15T04:03:32.899Z,95575.28
2019-01-15T04:06:00.220Z,95571.16
2019-01-15T04:08:27.560Z,95570.41
2019-01-15T04:10:54.915Z,95565.66
2019-01-15T04:13:22.272Z,95586.81
2019-01-15T04:15:49.629Z,95597.61
2019-01-15T04:18:17.012Z,95597.61
2019-01-15T04:20:44.315Z,95607.19
2019-01-15T04:23:11.701Z,95600.19
2019-01-15T04:25:39.103Z,95600.72
2019-01-15T04:28:06.428Z,95611.80
2019-01-15T04:30:33.786Z,95616.44
2019-01-15T04:33:01.136Z,95597.41
2019-01-15T04:35:28.465Z,95606.41
2019-01-15T04:37:55.799Z,95602.53
2019-01-15T04:40:23.190Z,95613.77
2019-01-15T04:42:50.714Z,95613.77
2019-01-15T04:45:19.920Z,95613.18
2019-01-15T04:47:47.309Z,95613.14
2019-01-15T04:50:15.231Z,95622.54
2019-01-15T04:52:44.543Z,95621.59
2019-01-15T04:55:12.000Z,95620.38
2019-01-15T04:57:39.338Z,95626.37
2019-01-15T05:00:10.340Z,95638.29
2019-01-15T05:02:39.111Z,95659.22
2019-01-15T05:05:06.626Z,95661.13
2019-01-15T05:07:33.955Z,95662.24
2019-01-15T05:10:02.025Z,95641.94
2019-01-15T05:12:29.363Z,95652.38
2019-01-15T05:14:56.695Z,95647.83
2019-01-15T05:17:24.055Z,95661.45
2019-01-15T05:19:51.395Z,95645.81
2019-01-15T05:22:18.758Z,95652.62
2019-01-15T05:24:46.139Z,95652.62
2019-01-15T05:27:13.475Z,95650.01
2019-01-15T05:29:40.787Z,95652.08
2019-01-15T05:32:08.115Z,95653.08
2019-01-15T05:34:35.455Z,95660.82
2019-01-15T05:37:03.235Z,95660.19
2019-01-15T05:39:30.595Z,95655.64
2019-01-15T05:41:57.989Z,95673.34
2019-01-15T05:44:25.296Z,95673.34
2019-01-15T05:46:53.735Z,95666.86
2019-01-15T05:49:21.064Z,95663.31
2019-01-15T05:51:48.410Z,95661.45
2019-01-15T05:54:15.811Z,95659.36
2019-01-15T05:56:43.113Z,95664.63
2019-01-15T05:59:10.439Z,95660.56
2019-01-15T06:01:38.140Z,95658.55
2019-01-15T06:04:05.660Z,95667.18
2019-01-15T06:06:33.065Z,95668.47
2019-01-15T06:09:00.555Z,95672.57
2019-01-15T06:11:28.061Z,95677.86
2019-01-15T06:13:55.415Z,95682.88
2019-01-15T06:16:22.824Z,95683.02
2019-01-15T06:18:50.200Z,95683.97
2019-01-15T06:21:17.548Z,95691.77
2019-01-15T06:23:44.966Z,95706.95
2019-01-15T06:26:12.368Z,95707.16
2019-01-15T06:28:40.059Z,95701.28
2019-01-15T06:31:08.328Z,95707.47
2019-01-15T06:33:35.743Z,95716.09
2019-01-15T06:36:03.365Z,95718.72
2019-01-15T06:38:30.775Z,95714.84
2019-01-15T06:40:58.158Z,95722.36
2019-01-15T06:43:25.507Z,95727.05
2019-01-15T06:45:52.965Z,95743.69
2019-01-15T06:48:20.335Z,95736.02
2019-01-15T06:50:47.694Z,95728.62
2019-01-15T06:53:15.133Z,95727.56
2019-01-15T06:55:42.483Z,95726.50
2019-01-15T06:58:09.964Z,95725.48
2019-01-15T07:00:37.418Z,95727.51
2019-01-15T07:03:04.825Z,95712.72
2019-01-15T07:05:34.098Z,95712.72
2019-01-15T07:08:01.626Z,95728.41
2019-01-15T07:10:34.607Z,95732.77
2019-01-15T07:13:01.988Z,95727.73
2019-01-15T07:15:29.424Z,95730.53
2019-01-15T07:17:56.818Z,95748.89
2019-01-15T07:20:24.339Z,95748.89
2019-01-15T07:22:51.864Z,95758.14
2019-01-15T07:25:19.791Z,95762.94
2019-01-15T07:27:47.174Z,95769.68
2019-01-15T07:30:17.651Z,95765.89
2019-01-15T07:32:45.010Z,95774.95
2019-01-15T07:35:12.340Z,95772.09
2019-01-15T07:37:39.742Z,95772.09
2019-01-15T07:40:08.346Z,95789.33
2019-01-15T07:42:35.662Z,95801.34
2019-01-15T07:45:03.659Z,95790.80
2019-01-15T07:47:31.054Z,95789.03
2019-01-15T07:49:58.438Z,95795.52
2019-01-15T07:52:25.807Z,95811.12
2019-01-15T07:54:57.396Z,95823.50
2019-01-15T07:57:48.666Z,95820.56
2019-01-15T08:00:19.219Z,95836.14
2019-01-15T08:02:49.203Z,95834.41
2019-01-15T08:05:19.054Z,95837.09
2019-01-15T08:07:47.684Z,95838.16
2019-01-15T08:10:17.191Z,95842.90
2019-01-15T08:12:46.604Z,95843.12
2019-01-15T08:15:18.763Z,95840.30
2019-01-15T08:17:47.567Z,95839.01
2019-01-15T08:20:16.186Z,95845.50
2019-01-15T08:22:44.713Z,95846.46
2019-01-15T08:26:14.823Z,95855.05
2019-01-15T08:28:43.227Z,95855.05
2019-01-15T08:31:11.754Z,95849.66
2019-01-15T08:33:40.194Z,95864.37
2019-01-15T08:36:08.666Z,95871.98
2019-01-15T08:38:37.195Z,95863.41
2019-01-15T08:41:05.724Z,95864.53
2019-01-15T08:43:34.244Z,95873.99
2019-01-15T08:46:02.740Z,95881.27
2019-01-15T08:48:32.764Z,95873.04
2019-01-15T08:51:01.992Z,95865.96
2019-01-15T08:53:30.654Z,95875.47
2019-01-15T08:56:00.217Z,95871.52
2019-01-15T08:58:28.734Z,95870.02
2019-01-15T09:00:57.164Z,95872.25
2019-01-15T09:03:25.745Z,95879.61
2019-01-15T09:05:54.244Z,95871.91
2019-01-15T09:08:22.895Z,95876.70
2019-01-15T09:10:51.577Z,95880.44
2019-01-15T09:13:20.058Z,95876.11
2019-01-15T09:15:48.580Z,95871.34
2019-01-15T09:18:17.121Z,95873.78
2019-01-15T09:20:45.514Z,95876.08
2019-01-15T09:23:13.926Z,95872.44
2019-01-15T09:25:42.524Z,95860.96
2019-01-15T09:28:11.026Z,95853.69
2019-01-15T09:30:39.482Z,95855.84
2019-01-15T09:33:07.974Z,95864.98
2019-01-15T09:35:36.364Z,95868.35
2019-01-15T09:38:06.587Z,95864.50
2019-01-15T09:40:35.165Z,95875.55
2019-01-15T09:43:03.659Z,95871.09
2019-01-15T09:45:32.631Z,95867.98
2019-01-15T09:48:03.332Z,95863.95
2019-01-15T09:50:31.964Z,95863.49
2019-01-15T09:53:01.803Z,95856.76
2019-01-15T09:55:30.301Z,95863.80
2019-01-15T09:57:58.859Z,95855.70
2019-01-15T10:02:16.646Z,95855.00
2019-01-15T10:04:45.482Z,95850.72
2019-01-15T10:07:14.120Z,95853.97
2019-01-15T10:09:42.884Z,95842.13
2019-01-15T10:12:11.753Z,95838.20
2019-01-15T10:14:41.404Z,95835.61
2019-01-15T10:17:10.385Z,95834.80
2019-01-15T10:19:39.144Z,95824.80
2019-01-15T10:22:07.998Z,95822.55
2019-01-15T10:24:37.214Z,95807.50
2019-01-15T10:27:06.762Z,95805.19
2019-01-15T10:29:35.731Z,95799.89
2019-01-15T10:33:00.884Z,95795.58
2019-01-15T10:35:52.608Z,95796.14
2019-01-15T10:38:24.195Z,95799.83
2019-01-15T10:40:56.798Z,95802.92
2019-01-15T10:43:27.064Z,95802.80
2019-01-15T10:45:56.298Z,95796.41
2019-01-15T10:48:24.891Z,95789.13
2019-01-15T10:50:53.839Z,95788.34
2019-01-15T10:53:22.862Z,95793.45
2019-01-15T10:55:51.565Z,95795.19
2019-01-15T10:58:20.396Z,95795.52
2019-01-15T11:00:49.215Z,95796.53
2019-01-15T11:03:18.144Z,95793.84
2019-01-15T11:05:47.384Z,95791.38
2019-01-15T11:08:16.179Z,95779.13
2019-01-15T11:10:44.944Z,95772.66
2019-01-15T11:13:13.754Z,95770.86
2019-01-15T11:15:43.470Z,95766.03
2019-01-15T11:18:12.759Z,95763.73
2019-01-15T11:20:41.434Z,95769.78
2019-01-15T11:23:10.053Z,95775.45
2019-01-15T11:25:40.777Z,95783.83
2019-01-15T11:28:09.454Z,95775.30
2019-01-15T11:30:38.300Z,95761.36
2019-01-15T11:33:07.066Z,95769.56
2019-01-15T11:35:35.874Z,95774.17
2019-01-15T11:38:05.611Z,95765.66
2019-01-15T11:40:34.370Z,95765.70
2019-01-15T11:43:06.017Z,95757.41
2019-01-15T11:45:34.787Z,95756.98
2019-01-15T11:48:04.559Z,95756.70
2019-01-15T11:50:33.348Z,95752.98
2019-01-15T11:53:03.329Z,95742.03
2019-01-15T11:55:32.060Z,95732.09
2019-01-15T11:58:00.760Z,95739.11
2019-01-15T12:00:52.494Z,95743.19
2019-01-15T12:03:26.880Z,95731.30
2019-01-15T12:06:20.765Z,95735.72
2019-01-15T12:09:07.755Z,95739.39
2019-01-15T12:12:04.764Z,95738.42
2019-01-15T12:14:51.475Z,95735.27
2019-01-15T12:17:42.505Z,95724.30
2019-01-15T12:20:29.834Z,95723.63
2019-01-15T12:23:14.477Z,95720.91
2019-01-15T12:26:09.790Z,95723.23
2019-01-15T12:29:00.730Z,95716.25
2019-01-15T12:31:54.772Z,95716.59
2019-01-15T12:34:39.259Z,95700.93
2019-01-15T12:37:26.161Z,95690.33
2019-01-15T12:40:29.761Z,95686.73
2019-01-15T12:43:17.911Z,95686.22
2019-01-15T12:45:54.845Z,95679.33
2019-01-15T12:48:50.618Z,95675.64
2019-01-15T12:51:50.940Z,95675.97
2019-01-15T12:54:51.437Z,95679.02
2019-01-15T12:57:38.447Z,95681.58
2019-01-15T13:00:29.720Z,95680.02
2019-01-15T13:03:36.187Z,95676.97
2019-01-15T13:06:40.489Z,95681.60
2019-01-15T13:09:28.848Z,95674.69
2019-01-15T13:12:13.418Z,95674.13
2019-01-15T13:15:00.503Z,95669.94
2019-01-15T13:17:43.634Z,95669.44
2019-01-15T13:20:32.320Z,95660.61
2019-01-15T13:23:19.245Z,95650.88
2019-01-15T13:26:16.433Z,95653.09
2019-01-15T13:29:07.252Z,95650.07
2019-01-15T13:31:53.426Z,95650.20
2019-01-15T13:34:33.094Z,95648.25
2019-01-15T13:37:19.821Z,95634.79
2019-01-15T13:40:04.494Z,95634.93
2019-01-15T13:42:55.470Z,95628.27
2019-01-15T13:46:00.797Z,95634.02
2019-01-15T13:48:47.422Z,95633.31
2019-01-15T13:51:41.333Z,95627.89
2019-01-15T13:54:29.345Z,95618.25
2019-01-15T13:57:26.745Z,95614.59
2019-01-15T14:00:12.716Z,95630.00
2019-01-15T14:06:03.762Z,95641.28
2019-01-15T14:08:45.333Z,95650.94
2019-01-15T14:11:36.311Z,95641.52
2019-01-15T14:14:33.614Z,95633.58
2019-01-15T14:17:14.385Z,95628.08
2019-01-15T14:20:01.335Z,95630.07
2019-01-15T14:22:48.245Z,95620.17
2019-01-15T14:25:48.617Z,95626.23
2019-01-15T14:28:25.395Z,95632.06
2019-01-15T14:31:13.659Z,95628.19
2019-01-15T14:34:10.627Z,95630.76
2019-01-15T14:36:57.302Z,95633.37
2019-01-15T14:39:48.564Z,95637.19
2019-01-15T14:42:47.217Z,95637.66
2019-01-15T14:45:35.542Z,95634.28
2019-01-15T14:48:23.287Z,95634.51
2019-01-15T14:51:10.295Z,95636.70
2019-01-15T14:53:57.296Z,95637.39
2019-01-15T14:56:46.598Z,95643.55
2019-01-15T14:59:37.859Z,95642.45
2019-01-15T15:02:28.146Z,95637.56
2019-01-15T15:05:25.256Z,95636.48
2019-01-15T15:08:11.994Z,95637.34
2019-01-15T15:10:56.612Z,95632.86
2019-01-15T15:13:56.848Z,95634.31
2019-01-15T15:16:44.082Z,95632.22
2019-01-15T15:19:31.221Z,95630.83
2019-01-15T15:22:25.616Z,95636.91
2019-01-15T15:25:27.112Z,95631.22
2019-01-15T15:28:14.566Z,95634.31
2019-01-15T15:31:13.663Z,95636.07
2019-01-15T15:34:00.402Z,95622.62
2019-01-15T15:36:51.572Z,95632.20
2019-01-15T15:39:36.521Z,95626.86
2019-01-15T15:42:40.298Z,95632.35
2019-01-15T15:45:20.751Z,95628.92
2019-01-15T15:48:22.626Z,95633.03
2019-01-15T15:51:26.287Z,95631.50
2019-01-15T15:54:26.741Z,95636.03
2019-01-15T15:57:21.679Z,95633.78
2019-01-15T16:00:22.067Z,95639.78
2019-01-15T16:03:13.195Z,95633.27
2019-01-15T16:05:57.641Z,95633.30
2019-01-15T16:08:44.764Z,95633.63
2019-01-15T16:11:42.267Z,95626.97
2019-01-15T16:14:29.667Z,95627.63
2019-01-15T16:17:20.604Z,95629.52
2019-01-15T16:20:27.095Z,95628.83
2019-01-15T16:23:13.672Z,95637.38
2019-01-15T16:26:07.895Z,95641.77
2019-01-15T16:28:55.789Z,95643.44
2019-01-15T16:31:46.935Z,95645.97
2019-01-15T16:34:33.668Z,95650.63
2019-01-15T16:37:14.581Z,95650.28
2019-01-15T16:40:11.564Z,95649.45
2019-01-15T16:42:50.598Z,95655.32
2019-01-15T16:45:37.265Z,95659.26
2019-01-15T16:48:25.021Z,95663.41
2019-01-15T16:51:06.927Z,95663.95
2019-01-15T16:53:46.479Z,95659.14
2019-01-15T16:56:37.329Z,95659.78
2019-01-15T16:59:19.959Z,95672.48
2019-01-15T17:02:28.005Z,95670.88
2019-01-15T17:05:15.114Z,95673.38
2019-01-15T17:08:01.688Z,95673.84
2019-01-15T17:10:52.553Z,95669.97
2019-01-15T17:13:43.655Z,95666.93
2019-01-15T17:16:33.512Z,95674.55
2019-01-15T17:19:21.517Z,95669.71
2019-01-15T17:22:13.863Z,95665.12
2019-01-15T17:25:04.150Z,95662.63
2019-01-15T17:28:10.427Z,95659.45
2019-01-15T17:30:57.142Z,95657.79
2019-01-15T17:33:44.035Z,95669.70
2019-01-15T17:36:32.331Z,95673.39
2019-01-15T17:39:23.656Z,95678.69
2019-01-15T17:42:15.636Z,95680.98
2019-01-15T17:45:02.585Z,95680.48
2019-01-15T17:47:53.626Z,95681.45
2019-01-15T17:50:40.834Z,95698.03
2019-01-15T17:53:35.105Z,95711.58
2019-01-15T17:56:26.966Z,95704.88
2019-01-15T17:59:21.965Z,95709.14
2019-01-15T18:02:10.684Z,95702.30
2019-01-15T18:05:08.313Z,95709.17
2019-01-15T18:07:59.566Z,95705.72
2019-01-15T18:11:00.231Z,95708.66
2019-01-15T18:14:07.631Z,95708.02
2019-01-15T18:17:01.614Z,95706.64
2019-01-15T18:19:48.627Z,95701.52
2019-01-15T18:22:35.587Z,95700.78
2019-01-15T18:25:23.625Z,95697.22
2019-01-15T18:28:14.698Z,95699.80
2019-01-15T18:31:20.906Z,95704.95
2019-01-15T18:34:28.688Z,95702.81
2019-01-15T18:37:17.372Z,95699.26
2019-01-15T18:40:15.120Z,95695.73
2019-01-15T18:43:05.963Z,95693.50
2019-01-15T18:50:31.321Z,95705.42
2019-01-15T18:53:25.823Z,95691.91
2019-01-15T18:56:28.530Z,95696.19
2019-01-15T18:59:19.664Z,95696.66
2019-01-15T19:03:39.493Z,95696.67
2019-01-15T19:06:35.841Z,95704.73
2019-01-15T19:09:25.813Z,95704.98
2019-01-15T19:12:07.780Z,95703.81
2019-01-15T19:14:53.680Z,95715.30
2019-01-15T19:17:39.335Z,95702.65
2019-01-15T19:20:45.977Z,95704.53
2019-01-15T19:23:33.377Z,95702.14
2019-01-15T19:26:36.050Z,95711.05
2019-01-15T19:29:22.629Z,95711.05
2019-01-15T19:32:28.216Z,95718.42
2019-01-15T19:35:18.516Z,95723.89
2019-01-15T19:38:04.567Z,95723.89
2019-01-15T19:40:50.637Z,95725.92
2019-01-15T19:43:50.525Z,95718.25
2019-01-15T19:46:46.915Z,95727.89
2019-01-15T19:49:24.463Z,95727.89
2019-01-15T19:52:18.496Z,95713.55
2019-01-15T19:55:14.773Z,95713.55
2019-01-15T19:58:04.727Z,95722.02
2019-01-15T20:00:57.825Z,95726.17
2019-01-15T20:03:50.112Z,95727.96
2019-01-15T20:06:24.856Z,95727.34
2019-01-15T20:09:21.019Z,95735.56
2019-01-15T20:12:04.073Z,95719.55
2019-01-15T20:15:03.414Z,95722.69
2019-01-15T20:17:42.661Z,95712.99
2019-01-15T20:20:35.099Z,95729.45
2019-01-15T20:23:27.039Z,95722.14
2019-01-15T20:26:23.444Z,95725.71
2019-01-15T20:29:09.344Z,95717.92
2019-01-15T20:31:56.466Z,95717.92
2019-01-15T20:34:58.871Z,95728.03
2019-01-15T20:37:37.040Z,95727.30
2019-01-15T20:40:29.787Z,95721.30
2019-01-15T20:43:07.040Z,95724.63
2019-01-15T20:46:03.592Z,95722.02
2019-01-15T20:48:43.078Z,95719.48
2019-01-15T20:51:29.503Z,95715.53
2019-01-15T20:54:11.957Z,95717.98
2019-01-15T20:57:11.213Z,95706.28
2019-01-15T20:59:54.964Z,95706.28
2019-01-15T21:02:48.109Z,95704.31
2019-01-15T21:05:36.833Z,95701.75
2019-01-15T21:08:16.509Z,95697.98
2019-01-15T21:11:06.810Z,95699.78
2019-01-15T21:13:59.992Z,95699.10
2019-01-15T21:16:45.622Z,95699.10
2019-01-15T21:19:27.786Z,95691.28
2019-01-15T21:22:16.411Z,95692.89
2019-01-15T21:25:03.490Z,95692.84
2019-01-15T21:27:45.449Z,95693.52
2019-01-15T21:30:42.683Z,95723.13
2019-01-15T21:33:47.591Z,95686.01
2019-01-15T21:36:37.549Z,95695.34
2019-01-15T21:39:17.499Z,95688.46
2019-01-15T21:42:13.131Z,95696.79
2019-01-15T21:44:58.352Z,95696.79
2019-01-15T21:47:45.284Z,95694.53
2019-01-15T21:50:50.324Z,95696.78
2019-01-15T21:53:43.226Z,95689.69
2019-01-15T21:56:31.659Z,95684.27
2019-01-15T21:59:18.648Z,95684.23
2019-01-15T22:02:11.607Z,95679.73
2019-01-15T22:04:55.905Z,95674.80
2019-01-15T22:07:41.115Z,95678.73
2019-01-15T22:10:40.108Z,95678.03
2019-01-15T22:13:33.067Z,95680.85
2019-01-15T22:16:18.734Z,95680.85
2019-01-15T22:19:14.667Z,95684.67
2019-01-15T22:22:10.876Z,95680.65
2019-01-15T22:24:56.307Z,95680.66
2019-01-15T22:27:35.987Z,95685.38
2019-01-15T22:30:36.861Z,95682.41
2019-01-15T22:33:29.619Z,95681.70
2019-01-15T22:36:19.907Z,95673.38
2019-01-15T22:39:06.847Z,95683.31
2019-01-15T22:41:53.130Z,95676.09
2019-01-15T22:44:45.721Z,95682.22
2019-01-15T22:47:44.488Z,95682.22
2019-01-15T22:50:40.547Z,95672.65
2019-01-15T22:53:33.311Z,95668.08
2019-01-15T22:56:20.210Z,95671.83
2019-01-15T22:59:12.758Z,95670.28
2019-01-15T23:02:02.397Z,95670.28
2019-01-15T23:04:52.178Z,95674.05
2019-01-15T23:07:37.919Z,95673.33
2019-01-15T23:10:29.178Z,95667.81
2019-01-15T23:13:04.367Z,95668.30
2019-01-15T23:15:44.764Z,95671.45
2019-01-15T23:18:43.645Z,95662.05
2019-01-15T23:21:48.729Z,95662.05
2019-01-15T23:24:34.535Z,95675.30
2019-01-15T23:27:21.375Z,95675.30
2019-01-15T23:30:08.236Z,95672.56
2019-01-15T23:32:53.988Z,95673.72
2019-01-15T23:35:43.687Z,95676.50
2019-01-15T23:38:30.539Z,95674.38
2019-01-15T23:41:16.254Z,95674.92
2019-01-15T23:44:03.128Z,95670.96
2019-01-15T23:46:39.507Z,95673.13
2019-01-15T23:49:32.224Z,95673.33
2019-01-15T23:52:37.379Z,95673.33
2019-01-15T23:55:37.807Z,95662.92
2019-01-15T23:58:24.711Z,95665.47
